Saint Clair, Michigan
Current Conditions -  °F | °C
As of 5:18 AM on Thursday 29 Jan 2015 (Local Time) from KPHN Reporting Station
Overcast Overcast  
Wind Chill: 16°   Ceiling: 7500
Heat Index: 27°   Visibility: 10mi
Dew Point: 18°   Wind: 13mph
Humidity: 69%   Direction: 140°SE
Pressure: 29.95"   Gusts: 20mph
Location:  42.82°N, 82.49°W
Report Text: KPHN 291018Z AUTO 14011G17KT 10SM SCT060 OVC075 M03/M08 A2995 RMK AO2
Loading
Personal Weather Stations






























Interactive Weather Map New forecast layout! Learn more

10-Day Weather Forecast

Advertisements
Track Severe Weather on mobile